Terminal Aerodrome Forecast
Issued by NWS

Home | Current Version | Previous Version | Text Only | Print | Product List | Glossary On
Versions: 1 2 3 4 5 6 7 8 9 10 11 12 13 14
000
FTUS42 TJSJ 240540
TAFISX
TAF
TISX 240540Z 2406/2506 00000KT P6SM RA VCTS SCT025CB BKN050
     FM241200 VRB08G15KT 5SM TSRA SCT015CB BKN025 OVC050
     FM241600 19010G20KT 3SM +TSRA SCT010CB BKN020 OVC035
     FM242200 14008KT P6SM VCSH SCT025 SCT070=

USA.gov is the U.S. government's official web portal to all federal, state and local government web resources and services.